Startpagina
METAR-TAF:

METAR-TAF

Vliegvelden :

Luchthaven Kaunas

Kaunas, Litouwen

breedte: 54-54N, lengte: 023-55-12E, hoogte: 77 m

Actueel weer

Dit bericht is 27 minuten geleden gemaakt, om 13:20 UTC
Wind 11 kt uit het oostzuidoosten
Temperatuur -1°C
Vochtigheid 64%
Druk 1027 hPa
Zicht 10 km of meer
geen wolken onder 1500 m en geen cumulonimbus

METAR: EYKA 221320Z 12011KT CAVOK M01/M07 Q1027 R08/090095

Tijdstip: 15:47 (13:47 UTC)

Verwachting

Dit bericht is 2 uur en het 44 minuten geleden gemaakt, om 11:03 UTC
Verwachting geldig van 22 om 12 UTC tot 23 om 12 UTC
Wind 14 kt uit het zuidoosten
Zicht: 9000 m

TAF: EYKA 221103Z 2212/2312 14014KT 9000 NSC

Waarnemingen en weersverwachtingen van meer dan 4000 vliegvelden (METAR en TAF).

De beschikbare stations zijn de gele en rode punten op de kaart.

Ga met uw muis naar het station om de naam te zien.

Klik dan om waarnemingen en weersverwachtingen te zien.

kaart wijzigen: klik op de groene knoppen met een zwart kruis om in te zoomen, op de groene knop met een streepje om uit te zoomen of op de groene pijlen voor aangrenzende kaarten.


METAR-TAF: